Time;durP1;ratioP1;P1;durP2;ratioP2;P2;SDS_P1;SDS_P2;PMS_P1;PMS_P2;Temp;Humidity;BMP_temperature;BMP_pressure;BME280_temperature;BME280_humidity;BME280_pressure;Samples;Min_cycle;Max_cycle;Signal;HPM_P1;HPM_P2
2023/05/01 00:01:06;;;;;;;6.07;5.47;;;;;;;11.79;77.53;154386.53;5022329;28;20491;-83
2023/05/01 00:03:32;;;;;;;5.77;5.27;;;;;;;11.81;79.94;154393.00;5000568;28;20458;-83
2023/05/01 00:06:03;;;;;;;6.43;5.27;;;;;;;11.73;79.04;154372.28;5006355;28;20467;-84
2023/05/01 00:08:30;;;;;;;5.63;5.13;;;;;;;11.66;77.77;154354.09;5004409;28;20463;-84
2023/05/01 00:10:57;;;;;;;6.50;5.90;;;;;;;11.67;81.49;154356.72;5004963;28;20463;-84
2023/05/01 00:13:23;;;;;;;6.83;6.23;;;;;;;11.61;82.37;154342.44;5010869;28;20504;-84
2023/05/01 00:15:50;;;;;;;6.87;5.50;;;;;;;11.53;80.66;154321.72;5008020;28;20457;-83
2023/05/01 00:18:17;;;;;;;5.73;5.13;;;;;;;11.52;79.78;154317.81;5024971;28;20492;-84
2023/05/01 00:20:43;;;;;;;5.97;5.17;;;;;;;11.57;83.54;154330.75;5010622;28;20455;-83
2023/05/01 00:23:11;;;;;;;7.67;6.87;;;;;;;11.54;82.10;154324.28;4998763;28;20458;-83
2023/05/01 00:25:38;;;;;;;6.23;5.63;;;;;;;11.57;83.32;154330.75;5001937;28;20500;-83
2023/05/01 00:28:05;;;;;;;6.10;5.50;;;;;;;11.55;86.48;154326.88;5010799;28;20458;-83
2023/05/01 00:30:32;;;;;;;6.73;5.90;;;;;;;11.33;84.06;154269.84;5008741;28;20843;-83
2023/05/01 00:33:00;;;;;;;6.80;6.10;;;;;;;11.23;85.60;154242.66;5005498;28;20485;-77
2023/05/01 00:35:27;;;;;;;7.90;5.97;;;;;;;11.05;84.27;154196.03;4991721;28;20454;-78
2023/05/01 00:37:54;;;;;;;7.03;6.33;;;;;;;11.02;86.32;154189.56;4991183;28;20462;-78
2023/05/01 00:40:22;;;;;;;7.90;6.40;;;;;;;11.04;88.34;154194.72;5020803;28;20493;-78
2023/05/01 00:42:49;;;;;;;6.60;6.00;;;;;;;10.94;86.24;154170.13;4989474;28;20493;-78
2023/05/01 00:45:16;;;;;;;7.57;6.57;;;;;;;10.89;87.02;154157.19;4983354;28;20471;-78
2023/05/01 00:47:42;;;;;;;6.50;5.83;;;;;;;10.89;89.33;154155.88;5020945;28;20526;-78
2023/05/01 00:50:09;;;;;;;7.20;6.50;;;;;;;10.81;89.68;154136.47;5023933;28;20462;-78
2023/05/01 00:52:36;;;;;;;7.97;6.70;;;;;;;10.75;90.50;154120.91;5004046;28;20586;-78
2023/05/01 00:55:04;;;;;;;7.50;6.80;;;;;;;10.73;91.99;154115.75;4985220;28;20995;-78
2023/05/01 00:57:32;;;;;;;7.60;6.90;;;;;;;10.71;91.42;154109.28;5002438;28;20837;-78
2023/05/01 00:59:59;;;;;;;9.90;6.73;;;;;;;10.69;92.89;154105.41;5014345;28;20460;-78
2023/05/01 01:02:26;;;;;;;7.53;6.83;;;;;;;10.67;92.86;154100.19;5003831;28;20460;-78
2023/05/01 01:04:52;;;;;;;7.80;6.97;;;;;;;10.67;92.85;154098.94;5008622;28;20444;-79
2023/05/01 01:07:23;;;;;;;7.10;6.40;;;;;;;10.66;92.13;154097.63;5025370;28;20460;-78
2023/05/01 01:09:58;;;;;;;7.93;7.07;;;;;;;10.69;93.75;154104.09;5003183;28;20455;-78
2023/05/01 01:12:27;;;;;;;6.97;6.27;;;;;;;10.66;91.63;154097.63;5023592;28;20472;-78
2023/05/01 01:15:01;;;;;;;6.37;5.77;;;;;;;10.80;86.00;154133.84;4990851;28;20465;-77
2023/05/01 01:17:31;;;;;;;6.93;6.27;;;;;;;10.93;84.53;154167.53;5009243;28;20503;-78
2023/05/01 01:20:17;;;;;;;6.83;5.63;;;;;;;11.00;83.70;154185.69;5003017;28;20463;-79
2023/05/01 01:22:47;;;;;;;6.67;6.00;;;;;;;11.12;81.34;154214.19;5004361;28;20469;-78
2023/05/01 01:25:28;;;;;;;6.33;5.73;;;;;;;11.21;80.84;154237.47;5022463;28;20550;-78
2023/05/01 01:28:17;;;;;;;6.90;5.87;;;;;;;11.28;79.35;154255.66;5006948;28;20555;-78
2023/05/01 01:31:07;;;;;;;6.33;5.50;;;;;;;11.29;80.30;154258.22;5007389;28;20452;-78
2023/05/01 01:33:56;;;;;;;6.10;5.40;;;;;;;11.25;81.31;154247.88;5006560;28;20484;-79
2023/05/01 01:36:33;;;;;;;6.00;5.00;;;;;;;11.27;79.60;154253.03;5009589;28;20511;-79
2023/05/01 01:39:06;;;;;;;7.70;6.40;;;;;;;11.30;79.24;154260.81;5006239;28;20455;-79
2023/05/01 01:41:34;;;;;;;6.97;6.27;;;;;;;11.40;78.10;154286.72;5012216;28;20457;-79
2023/05/01 01:44:04;;;;;;;6.73;5.70;;;;;;;11.42;77.72;154293.19;4995128;28;20525;-79
2023/05/01 01:46:33;;;;;;;5.90;5.40;;;;;;;11.38;79.05;154282.84;5017157;28;20469;-79
2023/05/01 01:49:01;;;;;;;7.77;6.20;;;;;;;11.40;78.36;154286.72;4991608;28;20453;-79
2023/05/01 01:51:29;;;;;;;6.43;5.80;;;;;;;11.42;77.97;154291.91;4993906;28;20466;-78
2023/05/01 01:53:57;;;;;;;6.50;5.50;;;;;;;11.45;77.43;154300.97;5015885;28;20483;-78
2023/05/01 01:56:26;;;;;;;6.00;5.47;;;;;;;11.43;77.52;154294.50;5008068;28;20457;-78
2023/05/01 01:58:53;;;;;;;7.93;7.23;;;;;;;11.37;77.87;154280.25;4990635;28;20492;-77
2023/05/01 02:01:22;;;;;;;6.73;5.80;;;;;;;11.32;78.24;154266.00;5007182;28;20459;-77
2023/05/01 02:03:49;;;;;;;6.20;5.60;;;;;;;11.31;78.58;154263.38;5025344;28;20502;-78
2023/05/01 02:06:17;;;;;;;6.90;6.20;;;;;;;11.26;80.34;154251.75;5009814;28;20477;-78
2023/05/01 02:08:44;;;;;;;7.43;6.37;;;;;;;11.23;78.65;154242.66;5023849;28;20464;-78
2023/05/01 02:11:13;;;;;;;6.37;5.77;;;;;;;11.22;79.06;154241.41;5008660;28;20778;-78
2023/05/01 02:13:41;;;;;;;6.40;5.83;;;;;;;11.24;79.11;154246.56;5000939;28;20481;-78
2023/05/01 02:16:08;;;;;;;7.10;6.10;;;;;;;11.26;78.89;154250.44;5002848;28;20577;-78
2023/05/01 02:18:35;;;;;;;6.03;5.40;;;;;;;11.28;78.79;154255.66;5006179;28;20451;-78
2023/05/01 02:21:03;;;;;;;6.57;5.70;;;;;;;11.33;77.96;154268.59;5006376;28;20457;-78
2023/05/01 02:23:37;;;;;;;6.37;5.73;;;;;;;11.39;77.40;154284.13;4986425;28;21083;-77
2023/05/01 02:26:04;;;;;;;6.70;5.70;;;;;;;11.38;77.05;154281.56;5005768;28;20455;-78
2023/05/01 02:28:32;;;;;;;5.73;5.23;;;;;;;11.37;77.13;154280.25;5013934;28;20479;-78
2023/05/01 02:30:58;;;;;;;6.00;5.40;;;;;;;11.39;76.92;154285.41;4991408;28;20478;-77
2023/05/01 02:33:27;;;;;;;6.50;5.93;;;;;;;11.36;77.68;154276.34;5001092;28;20480;-78
2023/05/01 02:35:54;;;;;;;5.90;5.40;;;;;;;11.38;77.11;154281.56;5009456;28;20833;-78
2023/05/01 02:38:20;;;;;;;7.13;5.80;;;;;;;11.45;75.90;154300.97;5021841;28;20528;-77
2023/05/01 02:40:52;;;;;;;7.47;5.93;;;;;;;11.45;75.33;154300.97;5008986;28;20451;-78
2023/05/01 02:43:40;;;;;;;5.30;4.80;;;;;;;11.45;75.09;154299.69;5006276;28;20443;-77
2023/05/01 02:46:20;;;;;;;5.60;5.10;;;;;;;11.42;76.34;154291.91;5013169;28;20552;-78
2023/05/01 02:48:48;;;;;;;6.00;5.50;;;;;;;11.38;76.35;154281.56;5024528;28;20473;-78
2023/05/01 02:51:14;;;;;;;7.13;5.90;;;;;;;11.30;78.15;154260.81;4995209;28;20462;-78
2023/05/01 02:53:41;;;;;;;8.30;5.77;;;;;;;11.26;78.12;154251.75;5011103;28;20988;-77
2023/05/01 02:56:19;;;;;;;6.60;5.47;;;;;;;11.21;78.43;154237.47;5009415;28;20463;-77
2023/05/01 02:58:45;;;;;;;6.60;5.90;;;;;;;11.24;78.07;154245.25;4995333;28;20502;-77
2023/05/01 03:01:12;;;;;;;6.20;5.60;;;;;;;11.29;78.73;154258.22;5020944;28;20574;-78
2023/05/01 03:03:38;;;;;;;6.77;6.07;;;;;;;11.28;79.86;154255.66;5026793;28;20449;-78
2023/05/01 03:06:05;;;;;;;7.10;6.40;;;;;;;11.21;79.96;154238.78;5024274;28;20449;-79
2023/05/01 03:08:32;;;;;;;7.47;6.77;;;;;;;11.24;78.62;154245.25;5010958;28;20967;-78
2023/05/01 03:10:58;;;;;;;6.00;5.40;;;;;;;11.19;79.14;154232.31;5006471;28;20474;-78
2023/05/01 03:13:26;;;;;;;6.00;5.23;;;;;;;11.15;80.16;154221.94;4992912;28;20573;-78
2023/05/01 03:15:53;;;;;;;6.90;6.00;;;;;;;11.10;80.72;154208.97;5025203;28;20472;-78
2023/05/01 03:18:20;;;;;;;6.63;5.93;;;;;;;11.08;80.19;154205.13;5019225;28;20546;-78
2023/05/01 03:20:53;;;;;;;6.67;6.00;;;;;;;11.09;80.27;154206.41;5005464;28;20819;-78
2023/05/01 03:23:20;;;;;;;6.10;5.50;;;;;;;11.02;80.87;154190.84;5004236;28;20890;-78
2023/05/01 03:25:46;;;;;;;6.63;5.83;;;;;;;11.02;81.11;154190.84;5021871;28;20481;-78
2023/05/01 03:28:14;;;;;;;6.80;6.13;;;;;;;11.11;80.14;154212.88;5006918;28;20572;-78
2023/05/01 03:30:42;;;;;;;6.47;5.87;;;;;;;11.12;80.14;154214.19;5010115;28;20513;-78
2023/05/01 03:33:08;;;;;;;6.20;5.60;;;;;;;11.14;80.14;154219.38;5007648;28;20504;-78
2023/05/01 03:36:07;;;;;;;5.90;5.30;;;;;;;11.24;78.82;154245.25;5024190;28;21062;-78
2023/05/01 03:38:34;;;;;;;7.00;6.30;;;;;;;11.25;78.71;154247.88;4926085;29;20471;-78
2023/05/01 03:41:10;;;;;;;6.70;6.10;;;;;;;11.20;79.51;154236.19;5008415;28;20441;-78
2023/05/01 03:43:55;;;;;;;6.83;5.60;;;;;;;11.11;80.21;154211.59;5018936;28;20458;-78
2023/05/01 03:46:36;;;;;;;7.03;6.17;;;;;;;11.11;79.43;154211.59;4991174;28;20482;-78
2023/05/01 03:49:05;;;;;;;6.73;5.50;;;;;;;11.17;78.02;154227.16;5007900;28;20465;-77
2023/05/01 03:51:37;;;;;;;6.40;5.50;;;;;;;11.13;78.54;154216.75;4990145;28;20846;-78
2023/05/01 03:54:03;;;;;;;7.37;5.90;;;;;;;11.16;79.50;154225.84;4992909;28;20493;-77
2023/05/01 03:56:38;;;;;;;7.10;6.40;;;;;;;11.15;78.33;154221.94;5002087;28;20445;-77
2023/05/01 03:59:06;;;;;;;6.70;6.10;;;;;;;11.16;78.14;154224.53;4991089;28;20525;-77
2023/05/01 04:01:33;;;;;;;8.00;6.20;;;;;;;11.11;78.83;154212.88;5022621;28;20465;-78
2023/05/01 04:04:01;;;;;;;6.67;6.03;;;;;;;11.10;78.96;154208.97;4989614;28;20470;-78
2023/05/01 04:06:28;;;;;;;7.60;6.70;;;;;;;11.05;79.01;154196.03;4987184;28;20565;-79
2023/05/01 04:08:54;;;;;;;7.20;6.50;;;;;;;11.04;79.65;154193.47;5004264;28;20848;-78
2023/05/01 04:11:21;;;;;;;6.73;6.13;;;;;;;11.00;80.29;154185.69;5008055;28;20479;-79
2023/05/01 04:13:48;;;;;;;7.77;6.97;;;;;;;10.97;80.15;154176.59;5005001;28;20574;-78
2023/05/01 04:16:19;;;;;;;6.80;5.90;;;;;;;10.96;79.44;154174.06;4988837;28;20464;-79
2023/05/01 04:18:46;;;;;;;6.43;5.83;;;;;;;10.96;79.51;154174.06;5013696;28;20468;-78
2023/05/01 04:21:17;;;;;;;7.00;6.40;;;;;;;10.94;80.66;154170.13;5022653;28;20496;-78
2023/05/01 04:23:45;;;;;;;7.50;6.80;;;;;;;10.92;80.71;154164.97;5006126;28;20460;-78
2023/05/01 04:26:11;;;;;;;7.20;6.50;;;;;;;10.90;80.12;154159.78;5000183;28;20461;-79
2023/05/01 04:28:38;;;;;;;9.97;6.10;;;;;;;10.87;80.39;154152.03;5007893;28;20460;-78
2023/05/01 04:31:07;;;;;;;8.17;7.27;;;;;;;10.83;80.64;154141.63;5004144;28;20456;-78
2023/05/01 04:33:34;;;;;;;8.03;7.00;;;;;;;10.84;80.65;154144.25;4992901;28;20498;-79
2023/05/01 04:36:00;;;;;;;8.13;7.33;;;;;;;10.86;80.84;154148.09;5023951;28;20452;-79
2023/05/01 04:38:29;;;;;;;7.00;6.30;;;;;;;10.85;81.00;154146.84;4980536;28;20457;-79
2023/05/01 04:40:58;;;;;;;6.80;6.20;;;;;;;10.81;82.75;154136.47;5006645;28;20458;-78
2023/05/01 04:43:24;;;;;;;7.10;6.50;;;;;;;10.82;81.60;154139.06;5005763;28;20479;-78
2023/05/01 04:45:51;;;;;;;7.50;6.40;;;;;;;10.81;81.13;154136.47;5002959;28;20472;-78
2023/05/01 04:48:18;;;;;;;7.23;6.53;;;;;;;10.79;81.64;154130.00;5012166;28;20997;-79
2023/05/01 04:50:44;;;;;;;6.57;5.97;;;;;;;10.76;81.27;154123.53;4996383;28;20445;-79
2023/05/01 04:53:11;;;;;;;7.83;6.93;;;;;;;10.76;81.54;154123.53;5006774;28;20462;-78
2023/05/01 04:55:39;;;;;;;8.47;7.60;;;;;;;10.77;80.50;154126.13;5019444;28;20459;-78
2023/05/01 04:58:11;;;;;;;8.23;6.60;;;;;;;10.83;80.60;154141.63;5002071;28;20546;-78
2023/05/01 05:00:37;;;;;;;7.83;7.00;;;;;;;10.76;80.96;154123.53;4984226;28;20467;-78
2023/05/01 05:03:07;;;;;;;7.20;6.30;;;;;;;10.73;82.10;154114.44;4984894;28;20469;-78
2023/05/01 05:05:34;;;;;;;10.07;6.43;;;;;;;10.67;80.90;154100.19;4984519;28;20559;-78
2023/05/01 05:08:01;;;;;;;6.33;5.73;;;;;;;10.69;83.00;154105.41;4987852;28;21075;-78
2023/05/01 05:10:36;;;;;;;8.10;7.30;;;;;;;10.71;83.70;154110.56;5005443;28;20467;-78
2023/05/01 05:13:36;;;;;;;7.23;6.53;;;;;;;10.68;83.13;154102.78;5015809;28;20492;-79
2023/05/01 05:16:09;;;;;;;8.23;7.10;;;;;;;10.70;84.37;154107.97;4995837;28;20464;-79
2023/05/01 05:18:36;;;;;;;10.00;7.53;;;;;;;10.78;87.53;154127.38;4995943;28;20464;-79
2023/05/01 05:21:04;;;;;;;7.60;6.90;;;;;;;10.73;84.33;154115.75;5006162;28;20514;-78
2023/05/01 05:23:30;;;;;;;7.80;7.00;;;;;;;10.72;83.82;154113.13;5001461;28;20458;-78
2023/05/01 05:25:58;;;;;;;10.10;7.07;;;;;;;10.76;84.89;154123.53;5023852;28;20523;-78
2023/05/01 05:28:25;;;;;;;7.80;6.67;;;;;;;10.79;81.56;154131.28;5005001;28;20463;-78
2023/05/01 05:30:53;;;;;;;7.97;7.17;;;;;;;10.82;82.69;154137.78;5004246;28;20502;-78
2023/05/01 05:33:21;;;;;;;7.33;6.63;;;;;;;10.76;82.46;154122.22;4987809;28;20525;-78
2023/05/01 05:35:47;;;;;;;7.67;6.87;;;;;;;10.74;82.93;154118.34;4984829;28;20455;-78
2023/05/01 05:38:14;;;;;;;6.87;6.20;;;;;;;10.74;83.14;154117.03;4987993;28;20469;-78
2023/05/01 05:40:43;;;;;;;7.43;6.73;;;;;;;10.71;83.85;154110.56;5004650;28;20598;-79
2023/05/01 05:43:11;;;;;;;6.90;6.30;;;;;;;10.67;83.82;154100.19;4986016;28;20786;-78
2023/05/01 05:45:38;;;;;;;7.90;7.20;;;;;;;10.67;85.78;154100.19;5003477;28;20519;-78
2023/05/01 05:48:06;;;;;;;9.73;7.10;;;;;;;10.66;84.97;154097.63;4995108;28;20444;-78
2023/05/01 05:50:37;;;;;;;8.63;7.73;;;;;;;10.63;87.38;154089.84;5001311;28;20480;-78
2023/05/01 05:53:05;;;;;;;8.53;7.57;;;;;;;10.63;88.66;154089.84;5003195;28;21148;-78
2023/05/01 05:55:32;;;;;;;8.63;7.73;;;;;;;10.62;89.00;154085.94;4986649;28;20479;-79
2023/05/01 05:58:01;;;;;;;9.73;7.93;;;;;;;10.63;91.98;154089.84;5019113;28;20490;-79
2023/05/01 06:00:28;;;;;;;9.43;8.33;;;;;;;10.62;94.13;154085.94;4985383;28;20528;-78
2023/05/01 06:02:56;;;;;;;10.73;8.23;;;;;;;10.57;93.99;154074.31;4999267;28;20485;-78
2023/05/01 06:05:27;;;;;;;11.00;9.90;;;;;;;10.59;96.50;154078.22;4992157;28;20489;-78
2023/05/01 06:07:54;;;;;;;9.43;8.50;;;;;;;10.60;98.33;154082.06;5004858;28;20444;-78
2023/05/01 06:10:21;;;;;;;9.70;8.80;;;;;;;10.60;99.81;154082.06;5000301;28;20991;-79
2023/05/01 06:12:49;;;;;;;11.67;9.13;;;;;;;10.56;100.00;154070.44;5017317;28;20836;-78
2023/05/01 06:15:16;;;;;;;9.00;8.20;;;;;;;10.59;96.93;154078.22;5009116;28;20841;-78
2023/05/01 06:17:47;;;;;;;9.60;8.60;;;;;;;10.49;95.46;154052.28;5010066;28;20459;-78
2023/05/01 06:20:14;;;;;;;9.50;8.50;;;;;;;10.48;94.59;154049.72;5019264;28;20514;-78
2023/05/01 06:22:42;;;;;;;9.73;8.70;;;;;;;10.45;94.11;154043.25;5008272;28;20492;-77
2023/05/01 06:25:20;;;;;;;8.37;7.40;;;;;;;10.47;95.24;154048.41;4985966;28;20450;-77
2023/05/01 06:27:47;;;;;;;9.20;8.37;;;;;;;10.53;91.40;154063.97;5025366;28;20533;-78
2023/05/01 06:30:14;;;;;;;9.77;8.77;;;;;;;10.54;94.58;154066.53;5009349;28;20456;-78
2023/05/01 06:32:42;;;;;;;9.50;8.57;;;;;;;10.52;94.40;154060.06;4990802;28;20543;-77
2023/05/01 06:35:10;;;;;;;10.80;9.10;;;;;;;10.52;94.29;154061.34;4992518;28;20476;-78
2023/05/01 06:37:37;;;;;;;9.40;8.43;;;;;;;10.59;95.87;154079.47;4993344;28;20958;-77
2023/05/01 06:40:08;;;;;;;9.20;8.30;;;;;;;10.56;92.45;154071.75;4994230;28;21080;-78
2023/05/01 06:42:35;;;;;;;8.87;7.97;;;;;;;10.54;93.62;154066.53;5007164;28;20460;-78
2023/05/01 06:45:02;;;;;;;9.20;8.30;;;;;;;10.43;94.78;154038.09;5006927;28;20808;-78
2023/05/01 06:47:29;;;;;;;8.70;7.80;;;;;;;10.44;94.52;154039.34;5012054;28;20462;-77
2023/05/01 06:49:55;;;;;;;9.50;8.60;;;;;;;10.44;95.05;154039.34;4990235;28;20834;-77
2023/05/01 06:52:22;;;;;;;9.83;8.87;;;;;;;10.36;96.18;154019.94;5007455;28;20549;-77
2023/05/01 06:54:48;;;;;;;8.50;7.70;;;;;;;10.32;94.97;154009.59;5011603;28;20526;-78
2023/05/01 06:57:16;;;;;;;9.90;8.77;;;;;;;10.36;94.45;154019.94;5002472;28;20480;-78
2023/05/01 06:59:43;;;;;;;8.70;7.80;;;;;;;10.45;93.08;154043.25;4992282;28;20459;-78
2023/05/01 07:02:09;;;;;;;9.70;8.70;;;;;;;10.49;93.73;154053.59;5022802;28;20453;-77
2023/05/01 07:04:36;;;;;;;9.73;8.70;;;;;;;10.51;93.49;154058.75;5001679;28;20455;-77
2023/05/01 07:07:02;;;;;;;9.73;8.73;;;;;;;10.43;97.86;154036.78;5014974;28;20451;-77
2023/05/01 07:09:29;;;;;;;11.30;9.00;;;;;;;10.28;96.06;154000.50;5021338;28;20502;-77
2023/05/01 07:11:56;;;;;;;10.67;9.63;;;;;;;10.35;95.85;154017.38;5026817;28;20458;-78
2023/05/01 07:14:24;;;;;;;9.20;8.30;;;;;;;10.43;94.63;154038.09;5027262;28;20614;-77
2023/05/01 07:16:50;;;;;;;9.03;8.10;;;;;;;10.51;93.49;154057.50;5008724;28;20473;-77
2023/05/01 07:19:17;;;;;;;8.53;7.60;;;;;;;10.52;95.03;154060.06;5007865;28;20515;-77
2023/05/01 07:21:43;;;;;;;9.40;8.50;;;;;;;10.48;96.59;154049.72;5004965;28;20461;-78
2023/05/01 07:24:11;;;;;;;10.03;8.37;;;;;;;10.51;98.29;154058.75;5009671;28;20456;-77
2023/05/01 07:26:37;;;;;;;10.73;9.60;;;;;;;10.54;100.00;154066.53;5007410;28;20974;-77
2023/05/01 07:29:04;;;;;;;12.60;10.37;;;;;;;10.58;98.88;154076.91;5010464;28;20953;-77
2023/05/01 07:31:32;;;;;;;10.70;9.60;;;;;;;10.62;100.00;154087.25;5023786;28;20451;-77
2023/05/01 07:34:12;;;;;;;10.03;9.03;;;;;;;10.61;100.00;154084.69;5024606;28;20469;-77
2023/05/01 07:36:40;;;;;;;12.13;10.83;;;;;;;10.67;100.00;154098.94;5026834;28;20462;-78
2023/05/01 07:39:06;;;;;;;10.50;9.07;;;;;;;10.75;100.00;154120.91;5018742;28;20535;-78
2023/05/01 07:41:33;;;;;;;19.90;13.47;;;;;;;10.82;100.00;154137.78;5002949;28;20456;-78
2023/05/01 07:44:00;;;;;;;11.00;9.83;;;;;;;10.89;100.00;154155.88;5012249;28;20514;-78
2023/05/01 07:46:26;;;;;;;11.20;10.10;;;;;;;10.97;100.00;154177.91;5010952;28;20450;-77
2023/05/01 07:48:54;;;;;;;12.27;10.97;;;;;;;11.07;100.00;154202.50;4989579;28;20488;-77
2023/05/01 07:51:23;;;;;;;13.77;10.80;;;;;;;11.14;100.00;154219.38;5002880;28;20963;-77
2023/05/01 07:53:50;;;;;;;10.93;9.83;;;;;;;11.22;99.90;154240.09;5000019;28;20817;-77
2023/05/01 07:56:16;;;;;;;10.30;9.20;;;;;;;11.26;98.77;154251.75;5019688;28;20548;-77
2023/05/01 07:58:43;;;;;;;11.33;10.13;;;;;;;11.32;99.01;154267.31;5007678;28;20804;-77
2023/05/01 08:01:10;;;;;;;9.97;8.90;;;;;;;11.41;100.00;154289.34;5024733;28;20457;-77
2023/05/01 08:03:36;;;;;;;11.40;9.87;;;;;;;11.47;100.00;154304.84;5018686;28;20468;-77
2023/05/01 08:06:04;;;;;;;12.77;11.37;;;;;;;11.53;100.00;154320.41;5003510;28;20556;-77
2023/05/01 08:08:31;;;;;;;14.40;11.73;;;;;;;11.53;100.00;154320.41;5021861;28;20475;-77
2023/05/01 08:10:57;;;;;;;11.40;9.57;;;;;;;11.53;98.89;154320.41;4999897;28;20486;-77
2023/05/01 08:13:24;;;;;;;12.63;10.60;;;;;;;11.60;99.77;154338.53;4994006;28;20449;-78
2023/05/01 08:15:51;;;;;;;10.40;9.30;;;;;;;11.58;97.94;154334.66;5019234;28;20535;-78
2023/05/01 08:18:19;;;;;;;13.53;12.10;;;;;;;11.68;98.72;154357.97;4997576;28;20466;-78
2023/05/01 08:20:46;;;;;;;12.40;10.90;;;;;;;11.77;100.00;154381.38;4996136;28;20467;-84
2023/05/01 08:23:15;;;;;;;12.63;11.30;;;;;;;11.77;99.54;154382.66;5012924;28;20933;-84
2023/05/01 08:25:41;;;;;;;11.50;10.30;;;;;;;11.84;100.00;154399.50;5002430;28;20440;-84
2023/05/01 08:28:08;;;;;;;11.03;9.70;;;;;;;11.84;97.65;154400.78;5004871;28;20461;-84
2023/05/01 08:30:35;;;;;;;10.13;9.13;;;;;;;11.88;95.99;154409.88;5006755;28;20548;-84
2023/05/01 08:33:02;;;;;;;18.27;12.10;;;;;;;11.91;97.24;154418.97;5006130;28;20550;-84
2023/05/01 08:35:28;;;;;;;11.13;10.07;;;;;;;11.93;97.47;154424.16;5014350;28;20501;-84
2023/05/01 08:37:55;;;;;;;11.10;9.83;;;;;;;12.02;97.07;154447.44;5005533;28;20456;-84
2023/05/01 08:40:23;;;;;;;10.87;9.70;;;;;;;12.07;97.20;154460.41;5006080;28;20461;-84
2023/05/01 08:42:50;;;;;;;10.83;9.73;;;;;;;12.10;96.97;154468.19;5002686;28;20891;-84
2023/05/01 08:45:19;;;;;;;11.20;10.00;;;;;;;12.23;98.79;154499.34;4999622;28;20517;-84
2023/05/01 08:47:46;;;;;;;12.60;10.30;;;;;;;12.29;97.67;154516.16;5001358;28;20471;-84
2023/05/01 08:50:13;;;;;;;12.67;10.93;;;;;;;12.46;98.05;154558.97;4999742;28;20465;-84
2023/05/01 08:52:41;;;;;;;11.60;9.83;;;;;;;12.58;100.00;154591.38;5017316;28;20813;-84
2023/05/01 08:55:08;;;;;;;10.43;9.33;;;;;;;12.63;93.99;154603.03;5002752;28;20567;-84
2023/05/01 08:57:36;;;;;;;10.83;9.73;;;;;;;12.80;95.81;154647.16;4978451;28;20480;-84
2023/05/01 09:00:04;;;;;;;10.30;8.97;;;;;;;12.90;91.96;154673.09;4996496;28;20576;-84
2023/05/01 09:02:31;;;;;;;9.00;8.10;;;;;;;13.00;92.67;154697.75;5017023;28;20462;-84
2023/05/01 09:04:59;;;;;;;10.40;9.37;;;;;;;13.09;93.37;154721.13;5015447;28;20469;-84
2023/05/01 09:07:26;;;;;;;11.33;10.23;;;;;;;13.15;90.45;154738.03;5007615;28;20503;-84
2023/05/01 09:09:52;;;;;;;12.40;8.90;;;;;;;13.32;91.24;154782.13;5001670;28;20470;-84
2023/05/01 09:12:23;;;;;;;10.73;9.47;;;;;;;13.45;90.11;154813.28;5000905;28;20464;-84
2023/05/01 09:14:52;;;;;;;10.57;9.53;;;;;;;13.59;91.22;154849.59;5021310;28;20508;-84
2023/05/01 09:17:19;;;;;;;10.63;9.30;;;;;;;13.71;91.83;154880.78;5027505;28;20464;-84
2023/05/01 09:19:46;;;;;;;11.77;9.37;;;;;;;13.83;90.96;154911.91;5000028;28;20462;-84
2023/05/01 09:22:13;;;;;;;10.03;8.87;;;;;;;13.92;88.71;154936.59;5026174;28;20485;-85
2023/05/01 09:24:39;;;;;;;9.33;7.87;;;;;;;14.00;86.77;154956.06;4999369;28;20468;-84
2023/05/01 09:27:06;;;;;;;8.50;7.67;;;;;;;14.10;86.87;154982.03;5000746;28;21095;-84
2023/05/01 09:29:41;;;;;;;11.63;7.97;;;;;;;14.17;92.11;154998.88;4995215;28;21342;-84
2023/05/01 09:32:16;;;;;;;9.47;7.93;;;;;;;14.13;87.52;154988.50;4996333;28;20453;-84
2023/05/01 09:34:43;;;;;;;8.43;7.67;;;;;;;14.22;86.40;155013.16;4995286;28;20454;-85
2023/05/01 09:37:12;;;;;;;8.20;7.40;;;;;;;14.32;85.97;155037.91;5008143;28;20571;-85
2023/05/01 09:39:39;;;;;;;8.93;8.03;;;;;;;14.41;86.02;155062.56;4994514;28;21245;-85
2023/05/01 09:42:05;;;;;;;8.07;7.33;;;;;;;14.55;85.75;155097.63;4998899;28;20978;-83
2023/05/01 09:44:40;;;;;;;8.50;6.90;;;;;;;14.70;84.49;155135.28;4999825;28;20585;-84
2023/05/01 09:47:08;;;;;;;8.10;7.30;;;;;;;14.88;87.02;155182.09;4998407;28;21040;-84
2023/05/01 09:49:47;;;;;;;8.40;6.80;;;;;;;14.96;86.26;155204.13;4982278;28;21055;-84
2023/05/01 09:52:14;;;;;;;8.00;7.30;;;;;;;15.07;82.92;155231.41;4998278;28;20960;-85
2023/05/01 09:54:41;;;;;;;8.40;7.60;;;;;;;15.19;80.27;155263.94;5021230;28;20461;-84
2023/05/01 09:57:08;;;;;;;8.20;7.40;;;;;;;15.23;78.40;155274.31;5015669;28;20478;-84
2023/05/01 09:59:35;;;;;;;8.60;7.50;;;;;;;15.30;77.90;155291.22;5002879;28;20470;-85
2023/05/01 10:02:05;;;;;;;7.37;6.57;;;;;;;15.39;81.90;155314.59;5002699;28;20547;-84
2023/05/01 10:04:32;;;;;;;8.30;7.43;;;;;;;15.29;83.13;155287.31;5012817;28;20448;-85
2023/05/01 10:07:11;;;;;;;9.77;7.20;;;;;;;15.40;82.55;155315.91;5001429;28;20807;-85
2023/05/01 10:09:38;;;;;;;7.47;6.77;;;;;;;15.47;78.18;155335.44;5008931;28;20521;-85
2023/05/01 10:12:05;;;;;;;8.67;7.10;;;;;;;15.67;73.46;155387.41;5008674;28;20441;-84
2023/05/01 10:14:37;;;;;;;7.40;6.70;;;;;;;15.65;77.36;155382.22;5006881;28;20467;-84
2023/05/01 10:17:17;;;;;;;7.67;6.97;;;;;;;15.52;73.75;155348.44;5015184;28;20435;-84
2023/05/01 10:19:43;;;;;;;7.17;6.47;;;;;;;15.61;78.30;155371.84;5020005;28;20533;-85
2023/05/01 10:22:11;;;;;;;9.87;8.97;;;;;;;15.59;77.60;155366.66;5001907;28;20490;-85
2023/05/01 10:24:38;;;;;;;10.00;9.00;;;;;;;15.52;76.16;155347.13;5011277;28;21125;-84
2023/05/01 10:27:06;;;;;;;9.40;8.43;;;;;;;15.40;76.86;155317.22;5008577;28;21053;-85
2023/05/01 10:29:35;;;;;;;10.67;9.67;;;;;;;15.29;78.60;155288.63;4995360;28;20511;-84
2023/05/01 10:32:03;;;;;;;10.00;9.00;;;;;;;15.15;78.95;155252.22;5008847;28;20436;-84
2023/05/01 10:34:30;;;;;;;9.37;8.47;;;;;;;15.11;79.72;155241.84;4994057;28;20532;-85
2023/05/01 10:37:00;;;;;;;9.90;8.90;;;;;;;15.11;79.72;155241.84;5008767;28;20468;-85
2023/05/01 10:39:32;;;;;;;12.90;9.33;;;;;;;15.14;80.23;155249.66;5004586;28;20525;-84
2023/05/01 10:42:09;;;;;;;10.67;9.57;;;;;;;15.14;79.82;155249.66;5019573;28;20442;-84
2023/05/01 10:44:39;;;;;;;10.87;9.87;;;;;;;15.11;79.54;155241.84;5021290;28;20534;-84
2023/05/01 10:47:45;;;;;;;10.67;9.43;;;;;;;15.15;79.07;155252.22;5016507;28;20480;-84
2023/05/01 10:50:14;;;;;;;11.60;10.40;;;;;;;15.06;78.85;155228.84;5003712;28;20974;-84
2023/05/01 10:53:18;;;;;;;11.53;9.80;;;;;;;15.12;79.39;155244.41;5009336;28;20534;-84
2023/05/01 10:55:48;;;;;;;10.70;9.60;;;;;;;15.08;78.46;155234.03;5009263;28;20491;-84
2023/05/01 10:58:53;;;;;;;11.00;9.90;;;;;;;15.05;78.51;155227.53;4999539;28;20488;-85
2023/05/01 11:01:33;;;;;;;11.47;10.37;;;;;;;15.14;78.21;155250.91;5026753;28;20459;-85
2023/05/01 11:04:00;;;;;;;11.73;10.53;;;;;;;15.03;78.61;155221.03;5010543;28;20472;-85
2023/05/01 11:06:27;;;;;;;10.90;9.83;;;;;;;15.10;79.42;155239.22;5023461;28;20538;-84
2023/05/01 11:08:54;;;;;;;10.97;9.87;;;;;;;15.28;78.11;155286.00;4991279;28;20462;-83
2023/05/01 11:11:53;;;;;;;11.03;9.90;;;;;;;15.17;77.52;155257.41;5010405;28;20452;-83
2023/05/01 11:14:19;;;;;;;10.63;9.50;;;;;;;15.08;76.88;155234.03;4940014;28;21062;-84
2023/05/01 11:16:47;;;;;;;10.27;9.27;;;;;;;15.10;77.23;155239.22;5002749;28;20500;-83
2023/05/01 11:19:49;;;;;;;11.00;9.90;;;;;;;15.00;76.95;155213.25;5007197;28;21007;-83
2023/05/01 11:22:15;;;;;;;10.97;9.80;;;;;;;15.05;76.18;155226.22;5009802;28;20458;-85
2023/05/01 11:24:50;;;;;;;9.80;8.90;;;;;;;15.04;76.74;155224.94;5008438;28;20446;-83
2023/05/01 11:27:18;;;;;;;9.93;9.03;;;;;;;15.13;75.41;155247.03;5000491;28;20799;-84
2023/05/01 11:29:48;;;;;;;9.83;8.80;;;;;;;15.11;75.21;155243.16;5009954;28;20439;-85
2023/05/01 11:32:17;;;;;;;9.10;8.20;;;;;;;15.20;75.95;155265.19;5015805;28;20456;-85